METAR Data
IDs: Format: Raw Decoded Include TAF

Data at: 0243 UTC 29 Nov 2020

METAR for:KMXO (Monticello Rgnl, IA, US)
Text:KMXO 290235Z AUTO 21008KT 10SM CLR 06/02 A2999 RMK AO2
Temperature: 6.0°C ( 43°F)
Dewpoint: 2.0°C ( 36°F) [RH = 75%]
Pressure (altimeter):29.99 inches Hg (1015.7 mb)
Winds:from the SSW (210 degrees) at 9 MPH (8 knots; 4.1 m/s)
Visibility:10 or more sm (16+ km)
Ceiling:at least 12,000 feet AGL
Clouds:sky clear below 12,000 feet AGL
QC Flag:automated observation with no human augmentation